createdAt,value
2018-08-03T00:00:43.641Z,101222.12
2018-08-03T00:03:13.787Z,101211.18
2018-08-03T00:05:43.818Z,101210.00
2018-08-03T00:08:13.670Z,101197.11
2018-08-03T00:10:43.544Z,101206.54
2018-08-03T00:13:13.024Z,101208.06
2018-08-03T00:15:44.043Z,101211.02
2018-08-03T00:18:14.267Z,101217.44
2018-08-03T00:20:43.744Z,101214.69
2018-08-03T00:23:12.844Z,101215.45
2018-08-03T00:25:42.423Z,101205.89
2018-08-03T00:28:11.660Z,101204.02
2018-08-03T00:30:40.714Z,101202.06
2018-08-03T00:33:10.215Z,101207.78
2018-08-03T00:35:39.692Z,101199.05
2018-08-03T00:38:08.875Z,101201.17
2018-08-03T00:40:38.209Z,101199.78
2018-08-03T00:43:08.314Z,101201.90
2018-08-03T00:45:38.690Z,101211.39
2018-08-03T00:48:07.656Z,101206.50
2018-08-03T00:50:37.731Z,101205.20
2018-08-03T00:53:06.707Z,101206.80
2018-08-03T00:55:36.887Z,101199.72
2018-08-03T00:58:06.765Z,101199.42
2018-08-03T01:00:36.364Z,101205.91
2018-08-03T01:03:06.253Z,101201.84
2018-08-03T01:05:35.585Z,101204.55
2018-08-03T01:08:05.808Z,101205.91
2018-08-03T01:10:34.782Z,101213.80
2018-08-03T01:13:04.563Z,101223.06
2018-08-03T01:15:33.886Z,101221.70
2018-08-03T01:18:03.759Z,101219.00
2018-08-03T01:20:32.988Z,101219.53
2018-08-03T01:23:02.392Z,101220.28
2018-08-03T01:25:31.448Z,101218.34
2018-08-03T01:28:00.419Z,101222.94
2018-08-03T01:30:29.651Z,101229.41
2018-08-03T01:32:59.139Z,101232.59
2018-08-03T01:35:28.426Z,101228.72
2018-08-03T01:37:58.575Z,101230.53
2018-08-03T01:40:27.547Z,101225.84
2018-08-03T01:42:57.960Z,101226.30
2018-08-03T01:45:26.931Z,101222.66
2018-08-03T01:47:56.222Z,101224.17
2018-08-03T01:50:26.124Z,101221.62
2018-08-03T01:52:56.040Z,101217.48
2018-08-03T01:55:25.532Z,101215.30
2018-08-03T01:57:55.660Z,101215.87
2018-08-03T02:00:24.893Z,101224.00
2018-08-03T02:02:54.665Z,101226.94
2018-08-03T02:05:23.968Z,101228.59
2018-08-03T02:07:53.759Z,101227.70
2018-08-03T02:10:23.729Z,101231.16
2018-08-03T02:12:53.444Z,101232.14
2018-08-03T02:15:22.971Z,101227.71
2018-08-03T02:17:52.645Z,101227.14
2018-08-03T02:20:21.840Z,101232.27
2018-08-03T02:22:50.815Z,101232.19
2018-08-03T02:25:19.764Z,101226.47
2018-08-03T02:27:48.741Z,101231.36
2018-08-03T02:30:17.784Z,101228.88
2018-08-03T02:32:47.331Z,101228.88
2018-08-03T02:35:16.657Z,101234.83
2018-08-03T02:37:46.112Z,101230.23
2018-08-03T02:40:15.483Z,101225.05
2018-08-03T02:42:45.770Z,101228.05
2018-08-03T02:45:15.392Z,101225.88
2018-08-03T02:47:45.101Z,101217.52
2018-08-03T02:50:14.432Z,101216.98
2018-08-03T02:52:44.332Z,101220.83
2018-08-03T02:55:14.665Z,101219.17
2018-08-03T02:57:48.725Z,101216.23
2018-08-03T03:00:17.927Z,101216.23
2018-08-03T03:02:47.326Z,101223.31
2018-08-03T03:05:16.877Z,101221.72
2018-08-03T03:07:46.848Z,101221.23
2018-08-03T03:10:16.300Z,101222.20
2018-08-03T03:12:46.285Z,101214.67
2018-08-03T03:15:15.991Z,101203.30
2018-08-03T03:17:46.129Z,101196.77
2018-08-03T03:20:16.116Z,101197.52
2018-08-03T03:22:45.940Z,101204.75
2018-08-03T03:25:15.863Z,101207.35
2018-08-03T03:27:45.876Z,101203.33
2018-08-03T03:30:15.752Z,101204.95
2018-08-03T03:32:46.525Z,101209.32
2018-08-03T03:35:19.676Z,101210.84
2018-08-03T03:37:49.961Z,101211.00
2018-08-03T03:40:19.759Z,101219.80
2018-08-03T03:42:49.402Z,101210.02
2018-08-03T03:45:18.299Z,101220.91
2018-08-03T03:47:47.237Z,101223.63
2018-08-03T03:50:16.808Z,101222.19
2018-08-03T03:52:48.053Z,101214.05
2018-08-03T03:55:17.463Z,101207.91
2018-08-03T03:57:47.143Z,101211.81
2018-08-03T04:00:16.575Z,101212.13
2018-08-03T04:02:47.852Z,101206.92
2018-08-03T04:05:16.873Z,101214.79
2018-08-03T04:07:47.351Z,101217.69
2018-08-03T04:10:16.543Z,101216.05
2018-08-03T04:12:46.049Z,101218.34
2018-08-03T04:15:15.875Z,101214.92
2018-08-03T04:17:46.414Z,101211.47
2018-08-03T04:20:15.632Z,101211.84
2018-08-03T04:22:44.863Z,101210.08
2018-08-03T04:25:14.631Z,101214.56
2018-08-03T04:27:44.337Z,101217.39
2018-08-03T04:30:14.302Z,101222.70
2018-08-03T04:32:44.548Z,101225.08
2018-08-03T04:35:14.490Z,101211.34
2018-08-03T04:37:44.247Z,101213.13
2018-08-03T04:40:13.359Z,101207.83
2018-08-03T04:42:43.383Z,101204.48
2018-08-03T04:45:12.991Z,101203.25
2018-08-03T04:47:42.755Z,101200.94
2018-08-03T04:50:12.054Z,101197.64
2018-08-03T04:52:42.172Z,101197.59
2018-08-03T04:55:12.048Z,101198.41
2018-08-03T04:57:42.060Z,101196.03
2018-08-03T05:00:11.040Z,101187.39
2018-08-03T05:02:40.907Z,101190.55
2018-08-03T05:05:10.408Z,101191.95
2018-08-03T05:07:39.818Z,101188.52
2018-08-03T05:10:09.988Z,101192.39
2018-08-03T05:12:39.161Z,101190.55
2018-08-03T05:15:09.044Z,101201.22
2018-08-03T05:17:39.099Z,101202.54
2018-08-03T05:20:08.591Z,101199.33
2018-08-03T05:22:37.898Z,101206.72
2018-08-03T05:25:07.670Z,101207.84
2018-08-03T05:27:36.572Z,101202.48
2018-08-03T05:30:07.815Z,101194.71
2018-08-03T05:32:38.023Z,101186.10
2018-08-03T05:35:07.976Z,101186.23
2018-08-03T05:37:37.152Z,101187.69
2018-08-03T05:40:06.526Z,101191.84
2018-08-03T05:42:36.711Z,101184.84
2018-08-03T05:45:06.440Z,101185.81
2018-08-03T05:47:36.021Z,101181.80
2018-08-03T05:50:05.622Z,101181.06
2018-08-03T05:52:35.748Z,101187.33
2018-08-03T05:55:05.468Z,101188.98
2018-08-03T05:57:35.536Z,101196.39
2018-08-03T06:00:05.256Z,101194.50
2018-08-03T06:02:35.305Z,101197.58
2018-08-03T06:05:04.352Z,101195.72
2018-08-03T06:07:33.281Z,101199.41
2018-08-03T06:10:03.144Z,101188.92
2018-08-03T06:12:32.372Z,101183.66
2018-08-03T06:15:01.720Z,101187.84
2018-08-03T06:17:31.676Z,101180.05
2018-08-03T06:20:00.881Z,101177.69
2018-08-03T06:22:29.778Z,101177.70
2018-08-03T06:24:58.924Z,101182.88
2018-08-03T06:27:28.564Z,101168.98
2018-08-03T06:29:57.939Z,101168.23
2018-08-03T06:32:27.905Z,101166.09
2018-08-03T06:34:57.481Z,101175.98
2018-08-03T06:37:26.752Z,101163.45
2018-08-03T06:39:56.109Z,101172.76
2018-08-03T06:42:26.072Z,101172.02
2018-08-03T06:44:55.196Z,101169.31
2018-08-03T06:47:24.464Z,101163.91
2018-08-03T06:49:53.620Z,101166.17
2018-08-03T06:52:23.828Z,101170.56
2018-08-03T06:54:54.193Z,101178.23
2018-08-03T06:57:23.981Z,101184.03
2018-08-03T06:59:53.079Z,101175.60
2018-08-03T07:02:22.880Z,101179.70
2018-08-03T07:04:51.932Z,101177.58
2018-08-03T07:07:21.249Z,101174.59
2018-08-03T07:09:51.656Z,101178.67
2018-08-03T07:12:20.868Z,101183.81
2018-08-03T07:14:49.874Z,101183.33
2018-08-03T07:17:19.456Z,101172.95
2018-08-03T07:19:48.621Z,101165.31
2018-08-03T07:22:17.856Z,101171.08
2018-08-03T07:24:46.965Z,101168.64
2018-08-03T07:27:16.404Z,101165.36
2018-08-03T07:29:46.615Z,101159.34
2018-08-03T07:32:17.052Z,101158.25
2018-08-03T07:34:48.342Z,101155.55
2018-08-03T07:37:17.454Z,101156.64
2018-08-03T07:39:46.980Z,101145.72
2018-08-03T07:42:16.309Z,101150.91
2018-08-03T07:44:46.297Z,101154.44
2018-08-03T07:47:16.237Z,101148.66
2018-08-03T07:49:45.851Z,101149.17
2018-08-03T07:52:15.554Z,101142.05
2018-08-03T07:54:46.065Z,101147.30
2018-08-03T07:57:16.878Z,101145.66
2018-08-03T07:59:46.551Z,101145.89
2018-08-03T08:02:17.065Z,101144.20
2018-08-03T08:04:46.927Z,101147.75
2018-08-03T08:07:17.149Z,101137.81
2018-08-03T08:09:47.296Z,101152.27
2018-08-03T08:12:16.511Z,101147.61
2018-08-03T08:14:47.068Z,101146.24
2018-08-03T08:17:17.188Z,101139.88
2018-08-03T08:19:46.976Z,101142.87
2018-08-03T08:22:17.067Z,101145.06
2018-08-03T08:24:47.417Z,101142.08
2018-08-03T08:27:16.977Z,101143.49
2018-08-03T08:29:46.481Z,101139.93
2018-08-03T08:32:16.884Z,101130.82
2018-08-03T08:34:46.692Z,101127.76
2018-08-03T08:37:16.483Z,101123.31
2018-08-03T08:39:46.493Z,101135.41
2018-08-03T08:42:19.387Z,101140.80
2018-08-03T08:44:49.023Z,101128.93
2018-08-03T08:47:18.470Z,101131.87
2018-08-03T08:49:47.371Z,101129.65
2018-08-03T08:52:17.609Z,101136.14
2018-08-03T08:54:48.047Z,101121.04
2018-08-03T08:57:18.119Z,101128.42
2018-08-03T08:59:47.528Z,101133.82
2018-08-03T09:02:18.560Z,101126.62
2018-08-03T09:04:47.434Z,101131.27
2018-08-03T09:07:17.389Z,101125.75
2018-08-03T09:09:47.476Z,101118.87
2018-08-03T09:12:16.980Z,101116.67
2018-08-03T09:14:46.710Z,101113.52
2018-08-03T09:17:17.564Z,101109.91
2018-08-03T09:19:47.484Z,101112.89
2018-08-03T09:22:16.917Z,101111.20
2018-08-03T09:24:46.678Z,101104.61
2018-08-03T09:27:16.492Z,101097.43
2018-08-03T09:29:46.409Z,101096.33
2018-08-03T09:32:16.798Z,101097.43
2018-08-03T09:34:46.760Z,101101.42
2018-08-03T09:37:17.010Z,101091.97
2018-08-03T09:39:51.009Z,101085.45
2018-08-03T09:42:21.405Z,101087.59
2018-08-03T09:44:51.514Z,101087.00
2018-08-03T09:47:20.877Z,101087.50
2018-08-03T09:49:49.938Z,101080.40
2018-08-03T09:52:19.671Z,101088.33
2018-08-03T09:54:49.254Z,101090.81
2018-08-03T09:57:19.196Z,101092.07
2018-08-03T09:59:48.477Z,101081.98
2018-08-03T10:02:18.383Z,101090.17
2018-08-03T10:04:47.682Z,101085.98
2018-08-03T10:07:17.938Z,101099.41
2018-08-03T10:09:47.768Z,101085.20
2018-08-03T10:12:17.742Z,101085.43
2018-08-03T10:14:47.245Z,101076.27
2018-08-03T10:17:19.026Z,101084.39
2018-08-03T10:19:48.149Z,101076.34
2018-08-03T10:22:17.517Z,101078.53
2018-08-03T10:24:47.509Z,101049.92
2018-08-03T10:27:17.504Z,101059.22
2018-08-03T10:29:47.052Z,101054.80
2018-08-03T10:32:17.485Z,101058.98
2018-08-03T10:34:47.375Z,101056.66
2018-08-03T10:37:17.054Z,101047.16
2018-08-03T10:39:46.880Z,101058.83
2018-08-03T10:42:16.914Z,101048.05
2018-08-03T10:44:47.429Z,101048.23
2018-08-03T10:47:17.128Z,101052.77
2018-08-03T10:49:46.994Z,101052.59
2018-08-03T10:52:16.889Z,101044.63
2018-08-03T10:54:47.280Z,101058.05
2018-08-03T10:57:17.695Z,101051.54
2018-08-03T10:59:47.429Z,101047.52
2018-08-03T11:02:17.694Z,101046.49
2018-08-03T11:04:47.020Z,101043.66
2018-08-03T11:07:16.664Z,101042.98
2018-08-03T11:09:47.177Z,101051.36
2018-08-03T11:12:16.776Z,101044.56
2018-08-03T11:14:46.472Z,101039.73
2018-08-03T11:17:16.440Z,101043.34
2018-08-03T11:19:45.943Z,101046.91
2018-08-03T11:22:16.204Z,101041.15
2018-08-03T11:24:46.340Z,101044.67
2018-08-03T11:27:16.993Z,101038.70
2018-08-03T11:29:46.481Z,101039.82
2018-08-03T11:32:17.475Z,101026.17
2018-08-03T11:34:46.920Z,101036.52
2018-08-03T11:37:17.396Z,101023.39
2018-08-03T11:39:46.911Z,101037.63
2018-08-03T11:42:16.900Z,101028.52
2018-08-03T11:44:47.474Z,101023.91
2018-08-03T11:47:17.001Z,101026.92
2018-08-03T11:49:46.740Z,101033.29
2018-08-03T11:52:16.016Z,101034.80
2018-08-03T11:54:46.208Z,101036.17
2018-08-03T11:57:16.304Z,101031.78
2018-08-03T11:59:45.621Z,101038.70
2018-08-03T12:02:15.757Z,101037.85
2018-08-03T12:04:44.879Z,101031.02
2018-08-03T12:07:14.971Z,101032.39
2018-08-03T12:09:45.554Z,101036.22
2018-08-03T12:12:15.037Z,101031.02
2018-08-03T12:14:44.809Z,101026.63
2018-08-03T12:17:15.032Z,101018.02
2018-08-03T12:19:44.396Z,101019.01
2018-08-03T12:22:15.615Z,101017.34
2018-08-03T12:24:45.163Z,101015.38
2018-08-03T12:27:14.342Z,101012.92
2018-08-03T12:29:44.540Z,100989.33
2018-08-03T12:32:14.166Z,101005.30
2018-08-03T12:34:45.049Z,101005.49
2018-08-03T12:37:14.672Z,100989.67
2018-08-03T12:39:44.376Z,101001.01
2018-08-03T12:42:13.892Z,100997.34
2018-08-03T12:44:43.716Z,101003.21
2018-08-03T12:47:13.429Z,100995.20
2018-08-03T12:49:43.166Z,100989.34
2018-08-03T12:52:12.848Z,100992.58
2018-08-03T12:54:42.674Z,100992.84
2018-08-03T12:57:12.597Z,100991.57
2018-08-03T12:59:41.909Z,100980.69
2018-08-03T13:02:11.588Z,100976.30
2018-08-03T13:04:41.042Z,100978.33
2018-08-03T13:07:10.274Z,100976.28
2018-08-03T13:09:39.592Z,100979.09
2018-08-03T13:12:09.583Z,100975.16
2018-08-03T13:14:39.036Z,100980.80
2018-08-03T13:17:09.124Z,100982.67
2018-08-03T13:19:38.348Z,100975.98
2018-08-03T13:22:11.658Z,100969.50
2018-08-03T13:24:40.578Z,100966.89
2018-08-03T13:27:09.541Z,100965.27
2018-08-03T13:29:39.069Z,100966.67
2018-08-03T13:32:09.151Z,100968.56
2018-08-03T13:34:38.507Z,100959.84
2018-08-03T13:37:07.752Z,100958.31
2018-08-03T13:39:37.120Z,100961.23
2018-08-03T13:42:06.531Z,100951.36
2018-08-03T13:44:36.188Z,100963.22
2018-08-03T13:47:05.925Z,100959.86
2018-08-03T13:49:34.852Z,100965.63
2018-08-03T13:52:04.726Z,100967.77
2018-08-03T13:54:34.628Z,100981.88
2018-08-03T13:57:04.510Z,100972.08
2018-08-03T13:59:33.402Z,100957.42
2018-08-03T14:02:14.600Z,100937.12
2018-08-03T14:04:44.654Z,100931.78
2018-08-03T14:07:13.684Z,100937.78
2018-08-03T14:09:43.286Z,100939.67
2018-08-03T14:12:13.032Z,100941.67
2018-08-03T14:14:42.480Z,100935.41
2018-08-03T14:17:12.733Z,100934.27
2018-08-03T14:19:42.659Z,100936.33
2018-08-03T14:22:12.400Z,100934.47
2018-08-03T14:24:41.708Z,100925.95
2018-08-03T14:27:11.284Z,100927.49
2018-08-03T14:29:40.279Z,100923.66
2018-08-03T14:32:10.227Z,100927.79
2018-08-03T14:34:39.251Z,100934.48
2018-08-03T14:37:08.523Z,100926.05
2018-08-03T14:39:37.804Z,100929.38
2018-08-03T14:42:07.875Z,100931.77
2018-08-03T14:44:37.600Z,100929.17
2018-08-03T14:47:06.886Z,100938.80
2018-08-03T14:49:36.448Z,100927.14
2018-08-03T14:52:05.451Z,100932.70
2018-08-03T14:54:35.620Z,100920.86
2018-08-03T14:57:05.637Z,100927.54
2018-08-03T14:59:35.901Z,100924.27
2018-08-03T15:02:05.996Z,100919.00
2018-08-03T15:04:35.239Z,100919.73
2018-08-03T15:07:04.980Z,100920.28
2018-08-03T15:09:34.414Z,100918.91
2018-08-03T15:12:03.349Z,100908.01
2018-08-03T15:14:32.645Z,100908.84
2018-08-03T15:17:02.332Z,100918.06
2018-08-03T15:19:31.907Z,100906.20
2018-08-03T15:22:01.418Z,100912.63
2018-08-03T15:24:30.438Z,100913.70
2018-08-03T15:26:59.639Z,100903.92
2018-08-03T15:29:29.388Z,100899.97
2018-08-03T15:31:58.853Z,100895.98
2018-08-03T15:34:28.228Z,100892.98
2018-08-03T15:36:58.037Z,100888.37
2018-08-03T15:39:27.273Z,100881.53
2018-08-03T15:41:56.592Z,100880.78
2018-08-03T15:44:26.224Z,100885.27
2018-08-03T15:46:55.503Z,100879.84
2018-08-03T15:49:24.856Z,100872.38
2018-08-03T15:51:54.563Z,100871.47
2018-08-03T15:54:24.199Z,100872.88
2018-08-03T15:56:53.737Z,100869.41
2018-08-03T15:59:22.882Z,100869.31
2018-08-03T16:01:52.563Z,100878.66
2018-08-03T16:04:21.476Z,100870.91
2018-08-03T16:06:50.467Z,100875.86
2018-08-03T16:09:20.362Z,100866.59
2018-08-03T16:11:49.500Z,100860.14
2018-08-03T16:14:18.421Z,100859.28
2018-08-03T16:19:17.024Z,100845.14
2018-08-03T16:21:46.287Z,100850.88
2018-08-03T16:24:15.448Z,100842.65
2018-08-03T16:26:44.451Z,100844.15
2018-08-03T16:29:14.033Z,100844.64
2018-08-03T16:31:43.033Z,100844.34
2018-08-03T16:34:12.441Z,100839.42
2018-08-03T16:36:41.306Z,100833.05
2018-08-03T16:39:11.369Z,100833.36
2018-08-03T16:41:40.599Z,100833.56
2018-08-03T16:44:10.157Z,100829.82
2018-08-03T16:46:38.995Z,100832.98
2018-08-03T16:49:07.834Z,100829.61
2018-08-03T16:51:36.655Z,100824.73
2018-08-03T16:54:06.380Z,100818.19
2018-08-03T16:56:35.909Z,100816.48
2018-08-03T16:59:04.704Z,100815.48
2018-08-03T17:01:33.462Z,100813.08
2018-08-03T17:04:02.671Z,100813.68
2018-08-03T17:06:31.443Z,100817.58
2018-08-03T17:09:00.926Z,100812.84
2018-08-03T17:11:29.848Z,100817.79
2018-08-03T17:13:58.635Z,100803.22
2018-08-03T17:16:28.361Z,100805.66
2018-08-03T17:18:57.099Z,100803.78
2018-08-03T17:21:25.871Z,100800.30
2018-08-03T17:23:54.662Z,100793.42
2018-08-03T17:26:23.428Z,100792.78
2018-08-03T17:28:52.418Z,100786.37
2018-08-03T17:31:21.229Z,100789.89
2018-08-03T17:33:51.022Z,100781.55
2018-08-03T17:36:19.760Z,100790.56
2018-08-03T17:38:48.536Z,100789.19
2018-08-03T17:41:17.341Z,100784.14
2018-08-03T17:43:47.236Z,100783.08
2018-08-03T17:46:16.668Z,100775.28
2018-08-03T17:48:46.075Z,100776.41
2018-08-03T17:51:15.866Z,100778.22
2018-08-03T17:53:46.348Z,100770.06
2018-08-03T17:56:16.833Z,100772.36
2018-08-03T17:58:46.722Z,100763.98
2018-08-03T18:01:16.057Z,100777.88
2018-08-03T18:03:46.473Z,100773.98
2018-08-03T18:06:16.053Z,100769.22
2018-08-03T18:08:46.461Z,100766.65
2018-08-03T18:11:15.908Z,100767.60
2018-08-03T18:13:45.653Z,100763.83
2018-08-03T18:16:15.862Z,100757.77
2018-08-03T18:18:47.451Z,100760.08
2018-08-03T18:21:16.956Z,100764.15
2018-08-03T18:23:46.894Z,100762.69
2018-08-03T18:26:16.375Z,100762.84
2018-08-03T18:28:46.668Z,100762.67
2018-08-03T18:31:16.249Z,100760.59
2018-08-03T18:33:46.662Z,100757.36
2018-08-03T18:36:16.552Z,100759.71
2018-08-03T18:38:46.314Z,100761.94
2018-08-03T18:41:15.596Z,100761.78
2018-08-03T18:43:45.222Z,100771.80
2018-08-03T18:46:14.177Z,100771.76
2018-08-03T18:48:43.662Z,100768.92
2018-08-03T18:51:12.612Z,100780.06
2018-08-03T18:53:42.116Z,100771.63
2018-08-03T18:56:11.833Z,100775.05
2018-08-03T18:58:40.619Z,100772.46
2018-08-03T19:01:09.446Z,100781.39
2018-08-03T19:03:38.768Z,100789.15
2018-08-03T19:06:07.866Z,100796.70
2018-08-03T19:08:37.260Z,100794.30
2018-08-03T19:11:06.023Z,100796.33
2018-08-03T19:13:34.790Z,100796.11
2018-08-03T19:16:04.167Z,100797.28
2018-08-03T19:18:32.996Z,100791.32
2018-08-03T19:21:01.718Z,100796.30
2018-08-03T19:23:30.492Z,100792.49
2018-08-03T19:25:59.229Z,100795.54
2018-08-03T19:28:28.266Z,100803.83
2018-08-03T19:30:57.031Z,100796.76
2018-08-03T19:33:26.831Z,100797.09
2018-08-03T19:35:55.651Z,100799.30
2018-08-03T19:38:24.384Z,100800.16
2018-08-03T19:40:53.263Z,100800.72
2018-08-03T19:43:22.711Z,100803.81
2018-08-03T19:45:51.476Z,100805.48
2018-08-03T19:48:20.281Z,100801.14
2018-08-03T19:50:49.919Z,100801.70
2018-08-03T19:53:19.644Z,100805.28
2018-08-03T19:55:49.059Z,100802.62
2018-08-03T19:58:17.847Z,100807.02
2018-08-03T20:00:46.666Z,100806.77
2018-08-03T20:03:16.377Z,100807.33
2018-08-03T20:05:45.355Z,100808.20
2018-08-03T20:08:14.895Z,100804.41
2018-08-03T20:10:43.911Z,100801.73
2018-08-03T20:13:12.962Z,100811.88
2018-08-03T20:15:41.824Z,100808.06
2018-08-03T20:18:11.172Z,100807.28
2018-08-03T20:20:40.055Z,100804.30
2018-08-03T20:23:08.988Z,100811.96
2018-08-03T20:25:37.835Z,100809.52
2018-08-03T20:28:06.671Z,100813.08
2018-08-03T20:30:35.528Z,100811.45
2018-08-03T20:33:04.761Z,100812.82
2018-08-03T20:35:33.971Z,100809.55
2018-08-03T20:38:02.696Z,100809.83
2018-08-03T20:40:31.474Z,100806.56
2018-08-03T20:43:00.673Z,100803.87
2018-08-03T20:45:29.420Z,100798.96
2018-08-03T20:47:58.274Z,100801.46
2018-08-03T20:50:27.117Z,100806.13
2018-08-03T20:52:56.475Z,100807.23
2018-08-03T20:55:26.016Z,100806.13
2018-08-03T20:57:55.435Z,100803.72
2018-08-03T21:00:24.282Z,100797.44
2018-08-03T21:02:53.750Z,100809.23
2018-08-03T21:05:22.603Z,100812.24
2018-08-03T21:07:52.271Z,100804.62
2018-08-03T21:10:21.137Z,100804.60
2018-08-03T21:12:49.947Z,100806.00
2018-08-03T21:15:18.872Z,100798.35
2018-08-03T21:17:48.581Z,100800.27
2018-08-03T21:20:17.312Z,100805.73
2018-08-03T21:22:46.163Z,100802.75
2018-08-03T21:25:16.096Z,100802.48
2018-08-03T21:28:15.797Z,100809.03
2018-08-03T21:30:44.888Z,100801.14
2018-08-03T21:33:14.745Z,100804.14
2018-08-03T21:35:44.717Z,100798.12
2018-08-03T21:38:14.688Z,100792.14
2018-08-03T21:40:43.852Z,100794.05
2018-08-03T21:43:14.468Z,100792.95
2018-08-03T21:45:43.628Z,100792.69
2018-08-03T21:48:12.611Z,100794.05
2018-08-03T21:50:41.552Z,100789.41
2018-08-03T21:53:10.884Z,100791.61
2018-08-03T21:55:41.218Z,100790.78
2018-08-03T21:58:10.031Z,100791.06
2018-08-03T22:00:38.844Z,100792.70
2018-08-03T22:03:08.423Z,100795.97
2018-08-03T22:05:37.148Z,100794.33
2018-08-03T22:08:06.535Z,100797.59
2018-08-03T22:10:35.283Z,100791.30
2018-08-03T22:13:04.128Z,100794.84
2018-08-03T22:15:32.935Z,100789.11
2018-08-03T22:18:02.143Z,100797.83
2018-08-03T22:20:30.859Z,100792.40
2018-08-03T22:22:59.580Z,100796.48
2018-08-03T22:25:28.354Z,100793.47
2018-08-03T22:27:57.168Z,100786.64
2018-08-03T22:30:26.056Z,100787.17
2018-08-03T22:32:54.950Z,100786.92
2018-08-03T22:35:24.654Z,100778.19
2018-08-03T22:37:53.423Z,100776.55
2018-08-03T22:40:22.184Z,100779.82
2018-08-03T22:42:51.653Z,100767.54
2018-08-03T22:45:20.387Z,100773.83
2018-08-03T22:47:49.108Z,100768.91
2018-08-03T22:50:17.928Z,100766.72
2018-08-03T22:52:47.875Z,100756.34
2018-08-03T22:55:17.629Z,100757.16
2018-08-03T22:57:48.504Z,100762.07
2018-08-03T23:00:17.303Z,100762.61
2018-08-03T23:02:46.948Z,100754.70
2018-08-03T23:05:16.332Z,100757.16
2018-08-03T23:07:46.400Z,100748.97
2018-08-03T23:10:15.691Z,100750.36
2018-08-03T23:12:45.235Z,100747.36
2018-08-03T23:15:14.519Z,100749.53
2018-08-03T23:17:44.326Z,100749.25
2018-08-03T23:20:13.495Z,100747.62
2018-08-03T23:22:42.352Z,100745.16
2018-08-03T23:25:11.347Z,100742.17
2018-08-03T23:27:40.757Z,100745.17
2018-08-03T23:30:10.539Z,100739.16
2018-08-03T23:32:39.518Z,100740.79
2018-08-03T23:35:09.115Z,100743.25
2018-08-03T23:37:38.113Z,100742.43
2018-08-03T23:40:07.166Z,100738.89
2018-08-03T23:42:36.927Z,100734.53
2018-08-03T23:45:06.285Z,100726.34
2018-08-03T23:47:35.347Z,100734.26
2018-08-03T23:50:04.965Z,100723.62
2018-08-03T23:52:34.573Z,100719.27
2018-08-03T23:55:04.168Z,100725.80
2018-08-03T23:57:33.539Z,100727.72
